Archival Weather

Chicago O'Hare International

Chicago, Illinois (KORD)

Report from: Wednesday, February 16, 2022 7:51 AM CST
Current time: Saturday, February 4, 2023 11:21 PM CST

Current weather
Weather history
Weather forecast

Temperature8.9°C (48.0°F)
Wind chill5.3°C (41.6°F)
Dew point0.6°C (33.1°F)
Winds 15 kts (7.7 m/s, 17.3 mph) South-Southwest (200°)
Wind gusts 29 kts (14.9 m/s, 33.4 mph)
Peak wind 34 kts (17.5 m/s, 39.1 mph) South (190°) at 07:34
Visibility10 mi. (16.1 km)
Clouds Ceiling: Broken clouds 4,700 ft. (1,433 m)
Overcast 25,000 ft. (7,620 m)
Altimeter29.83 in.Hg (1010 mB)
Relative humidity56 %
Density altitude-529 ft. (-161 m)
Sea-level pressure101.1 kPa (1011 mB, 29.84 in.Hg)
Remarks Automated weather observing station with precipitation discriminator
Flight conditions Visual Meteorological Conditions
Raw dataKORD 161351Z 20015G29KT 10SM BKN047 OVC250 09/01 A2983 RMK AO2 PK WND 19034/1334 SLP106 T00890006
An unhandled exception has occurred. See browser dev tools for details. Reload 🗙